createdAt,value
2023-01-26T00:00:29.004Z,88
2023-01-26T00:01:29.699Z,120
2023-01-26T00:02:29.078Z,88
2023-01-26T00:03:29.947Z,77
2023-01-26T00:04:29.685Z,81
2023-01-26T00:05:29.012Z,78
2023-01-26T00:06:29.025Z,94
2023-01-26T00:07:29.755Z,100
2023-01-26T00:08:29.016Z,69
2023-01-26T00:09:29.135Z,78
2023-01-26T00:10:29.239Z,70
2023-01-26T00:11:29.020Z,85
2023-01-26T00:12:30.048Z,123
2023-01-26T00:13:29.888Z,80
2023-01-26T00:14:30.124Z,118
2023-01-26T00:15:29.573Z,96
2023-01-26T00:16:29.835Z,172
2023-01-26T00:17:29.691Z,132
2023-01-26T00:18:29.380Z,112
2023-01-26T00:19:29.833Z,130
2023-01-26T00:20:29.169Z,115
2023-01-26T00:21:29.696Z,132
2023-01-26T00:22:29.108Z,109
2023-01-26T00:23:29.107Z,104
2023-01-26T00:24:29.124Z,114
2023-01-26T00:25:28.989Z,192
2023-01-26T00:26:29.011Z,95
2023-01-26T00:27:29.049Z,126
2023-01-26T00:28:29.023Z,230
2023-01-26T00:29:29.111Z,305
2023-01-26T00:30:29.045Z,255
2023-01-26T00:31:29.132Z,273
2023-01-26T00:32:29.694Z,414
2023-01-26T00:33:29.691Z,145
2023-01-26T00:34:29.024Z,74
2023-01-26T00:35:29.451Z,135
2023-01-26T00:36:29.572Z,480
2023-01-26T00:37:29.022Z,442
2023-01-26T00:38:29.010Z,650
2023-01-26T00:39:29.112Z,256
2023-01-26T00:40:29.424Z,163
2023-01-26T00:41:29.325Z,68
2023-01-26T00:42:29.120Z,77
2023-01-26T00:43:29.348Z,253
2023-01-26T00:44:29.038Z,259
2023-01-26T00:45:29.869Z,153
2023-01-26T00:46:29.442Z,93
2023-01-26T00:47:29.168Z,311
2023-01-26T00:48:29.892Z,292
2023-01-26T00:49:29.069Z,217
2023-01-26T00:50:28.996Z,253
2023-01-26T00:51:29.691Z,169
2023-01-26T00:52:29.047Z,166
2023-01-26T00:53:29.009Z,226
2023-01-26T00:54:29.343Z,162
2023-01-26T00:55:29.368Z,167
2023-01-26T00:56:29.249Z,172
2023-01-26T00:57:29.231Z,106
2023-01-26T00:58:29.097Z,93
2023-01-26T00:59:29.681Z,74
2023-01-26T01:00:30.032Z,75
2023-01-26T01:01:29.347Z,71
2023-01-26T01:02:29.303Z,84
2023-01-26T01:03:29.148Z,73
2023-01-26T01:04:29.962Z,64
2023-01-26T01:05:29.039Z,92
2023-01-26T01:06:28.148Z,75
2023-01-26T01:07:29.602Z,124
2023-01-26T01:08:29.838Z,153
2023-01-26T01:09:29.099Z,128
2023-01-26T01:10:29.112Z,101
2023-01-26T01:11:28.984Z,74
2023-01-26T01:12:28.996Z,91
2023-01-26T01:13:28.978Z,84
2023-01-26T01:14:28.999Z,64
2023-01-26T01:15:29.627Z,66
2023-01-26T01:16:29.119Z,99
2023-01-26T01:17:29.057Z,61
2023-01-26T01:18:29.005Z,68
2023-01-26T01:19:29.259Z,68
2023-01-26T01:20:29.789Z,78
2023-01-26T01:21:29.434Z,67
2023-01-26T01:22:29.033Z,126
2023-01-26T01:23:29.000Z,130
2023-01-26T01:24:29.324Z,71
2023-01-26T01:25:28.989Z,83
2023-01-26T01:26:28.996Z,61
2023-01-26T01:27:30.043Z,83
2023-01-26T01:28:29.117Z,116
2023-01-26T01:29:29.120Z,74
2023-01-26T01:30:29.129Z,86
2023-01-26T01:31:29.247Z,101
2023-01-26T01:32:29.032Z,105
2023-01-26T01:33:29.099Z,280
2023-01-26T01:34:29.568Z,67
2023-01-26T01:35:29.871Z,229
2023-01-26T01:36:29.284Z,159
2023-01-26T01:37:29.579Z,79
2023-01-26T01:38:29.374Z,76
2023-01-26T01:39:29.800Z,81
2023-01-26T01:40:28.984Z,93
2023-01-26T01:41:29.473Z,71
2023-01-26T01:42:29.761Z,66
2023-01-26T01:43:29.052Z,60
2023-01-26T01:44:29.012Z,66
2023-01-26T01:45:29.408Z,66
2023-01-26T01:46:29.786Z,70
2023-01-26T01:47:29.043Z,70
2023-01-26T01:48:29.147Z,70
2023-01-26T01:49:29.023Z,69
2023-01-26T01:50:29.104Z,69
2023-01-26T01:51:29.185Z,68
2023-01-26T01:52:30.226Z,74
2023-01-26T01:53:29.163Z,68
2023-01-26T01:54:29.601Z,69
2023-01-26T01:55:29.089Z,65
2023-01-26T01:56:29.136Z,66
2023-01-26T01:57:29.095Z,74
2023-01-26T01:58:29.091Z,74
2023-01-26T01:59:29.203Z,77
2023-01-26T02:00:29.017Z,109
2023-01-26T02:01:29.429Z,86
2023-01-26T02:02:29.735Z,110
2023-01-26T02:03:29.373Z,105
2023-01-26T02:04:28.994Z,110
2023-01-26T02:05:29.557Z,97
2023-01-26T02:06:28.968Z,108
2023-01-26T02:07:28.985Z,91
2023-01-26T02:08:29.543Z,81
2023-01-26T02:09:29.614Z,74
2023-01-26T02:10:29.542Z,70
2023-01-26T02:11:29.269Z,77
2023-01-26T02:12:29.196Z,84
2023-01-26T02:13:29.180Z,123
2023-01-26T02:14:27.877Z,110
2023-01-26T02:15:29.509Z,123
2023-01-26T02:16:29.051Z,135
2023-01-26T02:17:29.493Z,136
2023-01-26T02:18:29.744Z,126
2023-01-26T02:19:29.814Z,171
2023-01-26T02:20:29.504Z,221
2023-01-26T02:21:29.862Z,185
2023-01-26T02:22:29.042Z,152
2023-01-26T02:23:29.564Z,168
2023-01-26T02:24:29.686Z,114
2023-01-26T02:25:29.257Z,243
2023-01-26T02:26:29.087Z,254
2023-01-26T02:27:29.487Z,180
2023-01-26T02:28:28.979Z,285
2023-01-26T02:29:29.636Z,179
2023-01-26T02:30:28.978Z,286
2023-01-26T02:31:29.349Z,227
2023-01-26T02:32:29.186Z,252
2023-01-26T02:33:29.001Z,262
2023-01-26T02:34:29.930Z,241
2023-01-26T02:35:28.990Z,221
2023-01-26T02:36:29.535Z,246
2023-01-26T02:37:29.650Z,225
2023-01-26T02:38:29.055Z,244
2023-01-26T02:39:29.684Z,336
2023-01-26T02:40:29.469Z,363
2023-01-26T02:41:29.091Z,364
2023-01-26T02:42:29.069Z,298
2023-01-26T02:43:29.387Z,291
2023-01-26T02:44:29.123Z,201
2023-01-26T02:45:29.591Z,243
2023-01-26T02:46:29.241Z,267
2023-01-26T02:47:29.266Z,224
2023-01-26T02:48:29.429Z,202
2023-01-26T02:49:29.235Z,193
2023-01-26T02:50:29.635Z,218
2023-01-26T02:51:29.401Z,167
2023-01-26T02:52:29.359Z,163
2023-01-26T02:53:29.159Z,189
2023-01-26T02:54:29.339Z,158
2023-01-26T02:55:29.449Z,236
2023-01-26T02:56:29.048Z,157
2023-01-26T02:57:29.012Z,196
2023-01-26T02:58:28.959Z,170
2023-01-26T02:59:28.988Z,178
2023-01-26T03:00:29.931Z,163
2023-01-26T03:01:32.328Z,183
2023-01-26T03:02:29.595Z,203
2023-01-26T03:03:29.126Z,152
2023-01-26T03:04:29.672Z,163
2023-01-26T03:05:29.156Z,181
2023-01-26T03:06:29.611Z,174
2023-01-26T03:07:29.019Z,207
2023-01-26T03:08:29.555Z,141
2023-01-26T03:09:29.058Z,131
2023-01-26T03:10:29.962Z,151
2023-01-26T03:11:29.989Z,121
2023-01-26T03:12:29.751Z,131
2023-01-26T03:13:29.064Z,131
2023-01-26T03:14:29.855Z,106
2023-01-26T03:15:28.957Z,160
2023-01-26T03:16:29.126Z,122
2023-01-26T03:17:29.059Z,165
2023-01-26T03:18:29.009Z,141
2023-01-26T03:19:29.979Z,123
2023-01-26T03:20:29.174Z,114
2023-01-26T03:21:28.109Z,117
2023-01-26T03:22:29.025Z,100
2023-01-26T03:23:29.102Z,116
2023-01-26T03:24:29.061Z,108
2023-01-26T03:25:29.586Z,137
2023-01-26T03:26:28.971Z,114
2023-01-26T03:27:28.967Z,95
2023-01-26T03:28:29.680Z,100
2023-01-26T03:29:29.342Z,136
2023-01-26T03:30:29.058Z,124
2023-01-26T03:31:29.926Z,133
2023-01-26T03:32:29.597Z,114
2023-01-26T03:33:29.148Z,116
2023-01-26T03:34:29.428Z,131
2023-01-26T03:35:29.499Z,115
2023-01-26T03:36:28.967Z,89
2023-01-26T03:37:29.710Z,166
2023-01-26T03:38:29.165Z,104
2023-01-26T03:39:29.555Z,87
2023-01-26T03:40:29.653Z,102
2023-01-26T03:41:29.453Z,156
2023-01-26T03:42:28.959Z,147
2023-01-26T03:43:29.216Z,93
2023-01-26T03:44:27.835Z,115
2023-01-26T03:45:29.087Z,139
2023-01-26T03:46:29.186Z,125
2023-01-26T03:47:28.971Z,154
2023-01-26T03:48:29.485Z,133
2023-01-26T03:49:29.106Z,148
2023-01-26T03:50:29.049Z,198
2023-01-26T03:51:29.006Z,160
2023-01-26T03:52:29.747Z,180
2023-01-26T03:53:28.956Z,163
2023-01-26T03:54:28.970Z,172
2023-01-26T03:55:29.738Z,173
2023-01-26T03:56:29.536Z,136
2023-01-26T03:57:29.045Z,148
2023-01-26T03:58:28.970Z,197
2023-01-26T03:59:29.060Z,200
2023-01-26T04:00:29.105Z,156
2023-01-26T04:01:29.077Z,202
2023-01-26T04:02:29.081Z,130
2023-01-26T04:03:29.478Z,138
2023-01-26T04:04:29.119Z,129
2023-01-26T04:05:29.305Z,144
2023-01-26T04:06:28.131Z,148
2023-01-26T04:07:28.962Z,135
2023-01-26T04:08:29.697Z,141
2023-01-26T04:09:28.990Z,138
2023-01-26T04:10:29.226Z,125
2023-01-26T04:11:29.554Z,103
2023-01-26T04:12:29.032Z,125
2023-01-26T04:13:29.370Z,138
2023-01-26T04:14:29.093Z,142
2023-01-26T04:15:29.551Z,107
2023-01-26T04:16:29.336Z,109
2023-01-26T04:17:29.063Z,108
2023-01-26T04:18:29.073Z,103
2023-01-26T04:19:29.130Z,104
2023-01-26T04:20:28.953Z,91
2023-01-26T04:21:29.304Z,103
2023-01-26T04:22:29.413Z,98
2023-01-26T04:23:28.998Z,90
2023-01-26T04:24:29.090Z,119
2023-01-26T04:25:31.162Z,86
2023-01-26T04:26:29.951Z,92
2023-01-26T04:27:29.020Z,89
2023-01-26T04:28:28.209Z,93
2023-01-26T04:29:29.373Z,77
2023-01-26T04:30:29.477Z,84
2023-01-26T04:31:28.986Z,105
2023-01-26T04:32:28.971Z,101
2023-01-26T04:33:29.072Z,101
2023-01-26T04:34:28.949Z,93
2023-01-26T04:35:28.971Z,105
2023-01-26T04:36:29.106Z,123
2023-01-26T04:37:29.589Z,111
2023-01-26T04:38:28.988Z,109
2023-01-26T04:39:29.530Z,125
2023-01-26T04:40:29.030Z,306
2023-01-26T04:41:29.797Z,162
2023-01-26T04:42:29.328Z,132
2023-01-26T04:43:29.886Z,165
2023-01-26T04:44:29.649Z,418
2023-01-26T04:45:29.144Z,163
2023-01-26T04:46:29.007Z,122
2023-01-26T04:47:29.580Z,90
2023-01-26T04:48:29.105Z,125
2023-01-26T04:49:28.963Z,112
2023-01-26T04:50:29.664Z,109
2023-01-26T04:51:29.489Z,94
2023-01-26T04:52:29.507Z,104
2023-01-26T04:53:28.971Z,104
2023-01-26T04:54:28.974Z,188
2023-01-26T04:55:29.586Z,305
2023-01-26T04:56:29.516Z,254
2023-01-26T04:57:28.947Z,249
2023-01-26T04:58:29.756Z,412
2023-01-26T04:59:28.943Z,375
2023-01-26T05:00:29.731Z,525
2023-01-26T05:01:29.697Z,255
2023-01-26T05:02:29.751Z,230
2023-01-26T05:03:29.610Z,260
2023-01-26T05:04:29.763Z,505
2023-01-26T05:05:29.412Z,406
2023-01-26T05:06:28.973Z,420
2023-01-26T05:07:29.719Z,444
2023-01-26T05:08:29.861Z,593
2023-01-26T05:09:29.082Z,176
2023-01-26T05:10:28.957Z,227
2023-01-26T05:11:28.971Z,458
2023-01-26T05:12:28.979Z,184
2023-01-26T05:13:29.063Z,267
2023-01-26T05:14:29.649Z,488
2023-01-26T05:15:29.346Z,300
2023-01-26T05:16:29.080Z,165
2023-01-26T05:17:29.969Z,599
2023-01-26T05:18:29.969Z,532
2023-01-26T05:19:28.983Z,804
2023-01-26T05:20:29.484Z,575
2023-01-26T05:21:28.953Z,548
2023-01-26T05:22:29.392Z,660
2023-01-26T05:23:29.623Z,435
2023-01-26T05:24:29.752Z,741
2023-01-26T05:25:28.955Z,722
2023-01-26T05:26:28.953Z,708
2023-01-26T05:27:29.414Z,466
2023-01-26T05:28:29.690Z,655
2023-01-26T05:29:29.562Z,693
2023-01-26T05:30:29.145Z,790
2023-01-26T05:31:29.527Z,731
2023-01-26T05:32:28.947Z,590
2023-01-26T05:33:28.955Z,949
2023-01-26T05:34:28.958Z,851
2023-01-26T05:35:29.458Z,1032
2023-01-26T05:36:29.564Z,795
2023-01-26T05:37:29.860Z,973
2023-01-26T05:38:29.303Z,623
2023-01-26T05:39:28.933Z,778
2023-01-26T05:40:29.528Z,920
2023-01-26T05:41:28.928Z,441
2023-01-26T05:42:29.822Z,815
2023-01-26T05:43:29.668Z,677
2023-01-26T05:44:28.939Z,624
2023-01-26T05:45:29.472Z,569
2023-01-26T05:46:29.348Z,470
2023-01-26T05:47:28.981Z,519
2023-01-26T05:48:29.052Z,448
2023-01-26T05:49:29.567Z,589
2023-01-26T05:50:28.963Z,329
2023-01-26T05:51:29.475Z,465
2023-01-26T05:52:28.979Z,445
2023-01-26T05:53:30.025Z,422
2023-01-26T05:54:28.973Z,385
2023-01-26T05:55:29.186Z,298
2023-01-26T05:56:29.521Z,566
2023-01-26T05:57:29.517Z,564
2023-01-26T05:58:27.900Z,547
2023-01-26T05:59:29.099Z,423
2023-01-26T06:00:30.147Z,503
2023-01-26T06:01:29.539Z,425
2023-01-26T06:02:29.636Z,590
2023-01-26T06:03:29.031Z,447
2023-01-26T06:04:29.384Z,365
2023-01-26T06:05:29.223Z,476
2023-01-26T06:06:29.378Z,568
2023-01-26T06:07:29.344Z,461
2023-01-26T06:08:29.643Z,501
2023-01-26T06:09:28.951Z,449
2023-01-26T06:10:28.933Z,295
2023-01-26T06:11:28.933Z,479
2023-01-26T06:12:28.923Z,515
2023-01-26T06:13:29.182Z,412
2023-01-26T06:14:29.273Z,243
2023-01-26T06:15:29.560Z,192
2023-01-26T06:16:29.174Z,167
2023-01-26T06:17:29.547Z,235
2023-01-26T06:18:29.709Z,219
2023-01-26T06:19:29.585Z,159
2023-01-26T06:20:28.957Z,126
2023-01-26T06:21:29.778Z,149
2023-01-26T06:22:29.523Z,119
2023-01-26T06:23:29.707Z,161
2023-01-26T06:24:28.989Z,137
2023-01-26T06:25:29.283Z,132
2023-01-26T06:26:29.231Z,108
2023-01-26T06:27:28.933Z,115
2023-01-26T06:28:28.951Z,121
2023-01-26T06:29:29.030Z,123
2023-01-26T06:30:29.528Z,124
2023-01-26T06:31:29.590Z,114
2023-01-26T06:32:28.931Z,109
2023-01-26T06:33:28.957Z,138
2023-01-26T06:34:28.957Z,119
2023-01-26T06:35:29.592Z,119
2023-01-26T06:36:28.959Z,115
2023-01-26T06:37:29.784Z,128
2023-01-26T06:38:28.923Z,101
2023-01-26T06:39:28.933Z,137
2023-01-26T06:40:29.524Z,152
2023-01-26T06:41:29.055Z,360
2023-01-26T06:42:28.982Z,458
2023-01-26T06:43:27.859Z,486
2023-01-26T06:44:29.623Z,554
2023-01-26T06:45:29.415Z,650
2023-01-26T06:46:29.018Z,313
2023-01-26T06:47:29.288Z,292
2023-01-26T06:48:29.630Z,533
2023-01-26T06:49:29.528Z,491
2023-01-26T06:50:28.932Z,530
2023-01-26T06:51:29.627Z,699
2023-01-26T06:52:29.041Z,529
2023-01-26T06:53:28.946Z,212
2023-01-26T06:54:29.064Z,351
2023-01-26T06:55:29.625Z,500
2023-01-26T06:56:28.940Z,471
2023-01-26T06:57:29.187Z,512
2023-01-26T06:58:28.940Z,436
2023-01-26T06:59:29.652Z,457
2023-01-26T07:00:29.718Z,524
2023-01-26T07:01:28.967Z,349
2023-01-26T07:02:29.748Z,452
2023-01-26T07:03:29.773Z,438
2023-01-26T07:04:29.146Z,528
2023-01-26T07:05:28.946Z,477
2023-01-26T07:06:29.225Z,497
2023-01-26T07:07:28.909Z,475
2023-01-26T07:08:29.123Z,464
2023-01-26T07:09:29.055Z,322
2023-01-26T07:10:28.955Z,412
2023-01-26T07:11:29.945Z,782
2023-01-26T07:12:29.632Z,513
2023-01-26T07:13:29.303Z,620
2023-01-26T07:14:30.416Z,417
2023-01-26T07:15:29.344Z,453
2023-01-26T07:16:31.439Z,705
2023-01-26T07:17:29.173Z,566
2023-01-26T07:18:29.285Z,741
2023-01-26T07:19:29.407Z,743
2023-01-26T07:20:29.061Z,829
2023-01-26T07:21:29.155Z,662
2023-01-26T07:22:28.966Z,809
2023-01-26T07:23:29.682Z,726
2023-01-26T07:24:29.807Z,665
2023-01-26T07:25:28.372Z,636
2023-01-26T07:26:28.942Z,356
2023-01-26T07:27:29.566Z,527
2023-01-26T07:28:29.920Z,581
2023-01-26T07:29:28.942Z,568
2023-01-26T07:30:29.111Z,530
2023-01-26T07:31:29.554Z,653
2023-01-26T07:32:28.925Z,763
2023-01-26T07:33:29.484Z,807
2023-01-26T07:34:30.735Z,759
2023-01-26T07:35:28.968Z,774
2023-01-26T07:36:29.167Z,763
2023-01-26T07:37:28.922Z,666
2023-01-26T07:38:29.909Z,676
2023-01-26T07:39:29.243Z,737
2023-01-26T07:40:29.816Z,802
2023-01-26T07:41:29.004Z,586
2023-01-26T07:42:29.002Z,610
2023-01-26T07:43:29.130Z,787
2023-01-26T07:44:29.513Z,823
2023-01-26T07:45:28.910Z,643
2023-01-26T07:46:29.176Z,466
2023-01-26T07:47:28.897Z,832
2023-01-26T07:48:28.915Z,712
2023-01-26T07:49:29.032Z,839
2023-01-26T07:50:29.667Z,746
2023-01-26T07:51:29.793Z,761
2023-01-26T07:52:29.782Z,753
2023-01-26T07:53:28.976Z,781
2023-01-26T07:55:28.922Z,736
2023-01-26T07:56:28.929Z,650
2023-01-26T07:57:28.942Z,613
2023-01-26T07:58:29.678Z,549
2023-01-26T07:59:29.616Z,510
2023-01-26T08:00:29.108Z,310
2023-01-26T08:01:29.913Z,319
2023-01-26T08:02:29.134Z,339
2023-01-26T08:03:28.927Z,298
2023-01-26T08:04:29.039Z,312
2023-01-26T08:05:29.705Z,508
2023-01-26T08:06:28.928Z,309
2023-01-26T08:07:28.918Z,479
2023-01-26T08:08:29.656Z,385
2023-01-26T08:09:28.931Z,498
2023-01-26T08:10:29.496Z,454
2023-01-26T08:11:29.000Z,240
2023-01-26T08:12:28.977Z,279
2023-01-26T08:13:35.254Z,475
2023-01-26T08:14:41.609Z,703
2023-01-26T08:15:27.740Z,566
2023-01-26T08:16:29.261Z,609
2023-01-26T08:17:29.933Z,318
2023-01-26T08:18:29.027Z,559
2023-01-26T08:19:29.531Z,507
2023-01-26T08:20:29.551Z,399
2023-01-26T08:21:28.927Z,365
2023-01-26T08:22:28.921Z,1119
2023-01-26T08:23:28.913Z,440
2023-01-26T08:24:28.912Z,1116
2023-01-26T08:25:28.964Z,936
2023-01-26T08:26:28.931Z,1101
2023-01-26T08:27:29.492Z,1167
2023-01-26T08:28:29.286Z,803
2023-01-26T08:29:29.384Z,1035
2023-01-26T08:30:28.909Z,1278
2023-01-26T08:31:29.142Z,982
2023-01-26T08:32:29.313Z,1262
2023-01-26T08:33:29.854Z,1121
2023-01-26T08:34:28.939Z,979
2023-01-26T08:35:29.442Z,1185
2023-01-26T08:36:29.299Z,1308
2023-01-26T08:37:29.858Z,920
2023-01-26T08:38:28.946Z,854
2023-01-26T08:39:29.465Z,774
2023-01-26T08:40:29.669Z,1139
2023-01-26T08:42:29.687Z,1315
2023-01-26T08:43:29.666Z,1368
2023-01-26T08:44:28.923Z,1175
2023-01-26T08:45:30.765Z,1106
2023-01-26T08:46:29.625Z,1001
2023-01-26T08:47:28.948Z,1111
2023-01-26T08:48:29.024Z,1205
2023-01-26T08:49:28.913Z,612
2023-01-26T08:50:28.922Z,1114
2023-01-26T08:51:29.740Z,779
2023-01-26T08:52:29.793Z,902
2023-01-26T08:53:28.950Z,748
2023-01-26T08:55:29.073Z,466
2023-01-26T08:56:29.683Z,892
2023-01-26T08:57:28.898Z,491
2023-01-26T08:58:28.973Z,973
2023-01-26T08:59:29.062Z,573
2023-01-26T09:00:29.121Z,1115
2023-01-26T09:01:29.131Z,1232
2023-01-26T09:02:29.332Z,854
2023-01-26T09:03:28.912Z,1286
2023-01-26T09:04:29.328Z,1196
2023-01-26T09:05:29.192Z,1308
2023-01-26T09:06:29.790Z,1201
2023-01-26T09:07:29.255Z,1441
2023-01-26T09:09:28.958Z,680
2023-01-26T09:10:28.947Z,902
2023-01-26T09:11:29.294Z,1053
2023-01-26T09:12:29.694Z,1104
2023-01-26T09:13:29.601Z,1052
2023-01-26T09:14:29.268Z,892
2023-01-26T09:15:28.893Z,845
2023-01-26T09:16:29.029Z,895
2023-01-26T09:18:28.947Z,989
2023-01-26T09:19:31.135Z,1028
2023-01-26T09:20:28.949Z,760
2023-01-26T09:21:28.993Z,865
2023-01-26T09:22:28.929Z,649
2023-01-26T09:23:29.154Z,862
2023-01-26T09:24:29.044Z,831
2023-01-26T09:25:28.966Z,882
2023-01-26T09:26:29.677Z,866
2023-01-26T09:27:29.685Z,950
2023-01-26T09:28:28.969Z,724
2023-01-26T09:29:29.697Z,751
2023-01-26T09:30:29.867Z,856
2023-01-26T09:31:27.878Z,895
2023-01-26T09:32:29.397Z,875
2023-01-26T09:33:29.004Z,487
2023-01-26T09:34:28.906Z,526
2023-01-26T09:35:29.268Z,656
2023-01-26T09:36:29.434Z,624
2023-01-26T09:37:29.636Z,693
2023-01-26T09:39:27.806Z,746
2023-01-26T09:40:28.968Z,777
2023-01-26T09:41:29.493Z,828
2023-01-26T09:42:29.528Z,882
2023-01-26T09:43:29.671Z,857
2023-01-26T09:44:28.978Z,733
2023-01-26T09:45:29.451Z,920
2023-01-26T09:46:29.104Z,862
2023-01-26T09:47:28.983Z,1015
2023-01-26T09:48:29.619Z,882
2023-01-26T09:49:28.908Z,591
2023-01-26T09:50:28.976Z,1011
2023-01-26T09:52:29.103Z,992
2023-01-26T09:53:29.234Z,1039
2023-01-26T09:54:29.960Z,855
2023-01-26T09:55:29.349Z,1049
2023-01-26T09:56:29.042Z,1250
2023-01-26T09:57:28.970Z,1040
2023-01-26T09:58:28.902Z,1177
2023-01-26T09:59:28.897Z,1110
2023-01-26T10:00:28.935Z,979
2023-01-26T10:01:29.868Z,1042
2023-01-26T10:02:29.607Z,869
2023-01-26T10:03:29.226Z,857
2023-01-26T10:04:28.900Z,886
2023-01-26T10:05:28.995Z,872
2023-01-26T10:06:28.890Z,952
2023-01-26T10:07:27.759Z,845
2023-01-26T10:08:28.891Z,988
2023-01-26T10:09:29.325Z,1000
2023-01-26T10:10:29.699Z,682
2023-01-26T10:11:28.958Z,842
2023-01-26T10:12:29.231Z,726
2023-01-26T10:13:29.460Z,964
2023-01-26T10:14:29.003Z,1129
2023-01-26T10:15:29.048Z,978
2023-01-26T10:16:29.070Z,811
2023-01-26T10:17:29.712Z,924
2023-01-26T10:18:29.044Z,822
2023-01-26T10:19:29.806Z,1023
2023-01-26T10:20:29.150Z,932
2023-01-26T10:21:29.328Z,1081
2023-01-26T10:22:29.195Z,1003
2023-01-26T10:23:29.217Z,1049
2023-01-26T10:24:28.985Z,1007
2023-01-26T10:25:29.533Z,1083
2023-01-26T10:26:29.287Z,1018
2023-01-26T10:27:28.893Z,1149
2023-01-26T10:28:28.915Z,833
2023-01-26T10:29:29.453Z,920
2023-01-26T10:30:29.755Z,965
2023-01-26T10:31:29.648Z,922
2023-01-26T10:32:28.983Z,1121
2023-01-26T10:33:29.815Z,598
2023-01-26T10:34:28.895Z,999
2023-01-26T10:35:28.906Z,997
2023-01-26T10:36:28.909Z,915
2023-01-26T10:37:29.426Z,905
2023-01-26T10:38:29.532Z,987
2023-01-26T10:39:28.916Z,1060
2023-01-26T10:40:29.738Z,920
2023-01-26T10:41:29.432Z,816
2023-01-26T10:42:29.066Z,1028
2023-01-26T10:43:29.657Z,1031
2023-01-26T10:44:29.360Z,1088
2023-01-26T10:45:28.973Z,876
2023-01-26T10:46:29.673Z,1019
2023-01-26T10:48:28.882Z,1166
2023-01-26T10:49:28.877Z,913
2023-01-26T10:50:28.903Z,766
2023-01-26T10:51:29.745Z,906
2023-01-26T10:52:29.343Z,1049
2023-01-26T10:53:28.874Z,833
2023-01-26T10:54:28.905Z,1281
2023-01-26T10:55:29.151Z,1156
2023-01-26T10:56:29.284Z,950
2023-01-26T10:57:27.754Z,1136
2023-01-26T10:58:29.474Z,1279
2023-01-26T10:59:29.545Z,1166
2023-01-26T11:00:29.517Z,1055
2023-01-26T11:01:29.559Z,1097
2023-01-26T11:02:29.707Z,1140
2023-01-26T11:03:29.181Z,771
2023-01-26T11:04:29.074Z,1171
2023-01-26T11:05:27.759Z,861
2023-01-26T11:06:28.887Z,679
2023-01-26T11:07:28.896Z,1102
2023-01-26T11:08:28.880Z,1038
2023-01-26T11:09:29.409Z,1233
2023-01-26T11:10:28.877Z,978
2023-01-26T11:11:29.222Z,1099
2023-01-26T11:12:28.904Z,1284
2023-01-26T11:13:29.631Z,1150
2023-01-26T11:14:28.883Z,1251
2023-01-26T11:15:28.873Z,1277
2023-01-26T11:16:28.990Z,1398
2023-01-26T11:17:29.881Z,1186
2023-01-26T11:18:29.460Z,1218
2023-01-26T11:20:28.914Z,1205
2023-01-26T11:21:28.889Z,1070
2023-01-26T11:22:28.886Z,1426
2023-01-26T11:23:29.010Z,1152
2023-01-26T11:24:28.915Z,1107
2023-01-26T11:25:28.868Z,1296
2023-01-26T11:26:28.865Z,1099
2023-01-26T11:27:28.911Z,1256
2023-01-26T11:28:28.890Z,1191
2023-01-26T11:29:29.335Z,1190
2023-01-26T11:30:29.131Z,1352
2023-01-26T11:31:28.970Z,1359
2023-01-26T11:32:28.882Z,1136
2023-01-26T11:33:28.958Z,926
2023-01-26T11:35:28.144Z,1223
2023-01-26T11:36:29.393Z,1351
2023-01-26T11:37:29.396Z,1052
2023-01-26T11:38:28.864Z,1121
2023-01-26T11:39:29.408Z,893
2023-01-26T11:40:28.883Z,1101
2023-01-26T11:41:28.910Z,1110
2023-01-26T11:42:29.453Z,1101
2023-01-26T11:43:28.880Z,1209
2023-01-26T11:44:29.444Z,1072
2023-01-26T11:45:28.895Z,1075
2023-01-26T11:46:29.596Z,1118
2023-01-26T11:47:28.972Z,1124
2023-01-26T11:48:29.034Z,1106
2023-01-26T11:49:29.172Z,908
2023-01-26T11:50:27.702Z,1142
2023-01-26T11:51:29.608Z,862
2023-01-26T11:52:30.012Z,960
2023-01-26T11:53:28.867Z,1063
2023-01-26T11:54:29.027Z,1168
2023-01-26T11:55:28.863Z,1244
2023-01-26T11:56:28.875Z,1035
2023-01-26T11:57:28.873Z,1265
2023-01-26T11:58:28.858Z,1237
2023-01-26T12:00:30.946Z,1189
2023-01-26T12:01:28.963Z,1210
2023-01-26T12:02:29.771Z,1168
2023-01-26T12:03:28.914Z,986
2023-01-26T12:04:29.890Z,990
2023-01-26T12:05:28.901Z,1138
2023-01-26T12:06:29.588Z,1157
2023-01-26T12:07:29.126Z,970
2023-01-26T12:08:29.689Z,1366
2023-01-26T12:09:29.595Z,989
2023-01-26T12:10:29.997Z,1122
2023-01-26T12:11:29.076Z,1035
2023-01-26T12:12:29.136Z,1173
2023-01-26T12:13:29.124Z,1246
2023-01-26T12:14:28.981Z,1080
2023-01-26T12:15:29.355Z,1047
2023-01-26T12:16:29.499Z,1123
2023-01-26T12:17:29.436Z,1240
2023-01-26T12:18:42.143Z,1166
2023-01-26T12:19:29.112Z,1166
2023-01-26T12:20:29.099Z,1264
2023-01-26T12:21:28.864Z,1142
2023-01-26T12:22:28.872Z,1298
2023-01-26T12:23:28.856Z,1081
2023-01-26T12:25:04.931Z,1024
2023-01-26T12:25:29.720Z,1300
2023-01-26T12:26:28.861Z,1174
2023-01-26T12:27:28.870Z,1091
2023-01-26T12:28:29.657Z,1119
2023-01-26T12:29:28.851Z,1142
2023-01-26T12:30:29.859Z,1045
2023-01-26T12:31:29.754Z,890
2023-01-26T12:32:29.561Z,1193
2023-01-26T12:33:29.430Z,1173
2023-01-26T12:34:29.184Z,1168
2023-01-26T12:35:28.906Z,906
2023-01-26T12:36:29.423Z,1213
2023-01-26T12:37:29.045Z,1318
2023-01-26T12:38:29.185Z,1207
2023-01-26T12:39:29.412Z,954
2023-01-26T12:40:29.231Z,952
2023-01-26T12:41:29.108Z,969
2023-01-26T12:42:29.595Z,593
2023-01-26T12:43:28.941Z,1066
2023-01-26T12:44:29.617Z,1244
2023-01-26T12:45:29.521Z,1216
2023-01-26T12:46:28.955Z,1228
2023-01-26T12:47:29.611Z,1203
2023-01-26T12:48:28.923Z,1332
2023-01-26T12:49:29.003Z,1361
2023-01-26T12:50:29.298Z,1375
2023-01-26T12:51:28.859Z,815
2023-01-26T12:52:28.994Z,1132
2023-01-26T12:53:29.862Z,684
2023-01-26T12:54:28.867Z,980
2023-01-26T12:55:29.894Z,990
2023-01-26T12:56:29.374Z,1246
2023-01-26T12:57:28.129Z,890
2023-01-26T12:58:29.212Z,789
2023-01-26T12:59:47.109Z,631
2023-01-26T13:00:28.891Z,582
2023-01-26T13:01:28.922Z,687
2023-01-26T13:02:29.069Z,582
2023-01-26T13:03:28.841Z,648
2023-01-26T13:04:29.115Z,452
2023-01-26T13:05:29.076Z,486
2023-01-26T13:06:29.655Z,495
2023-01-26T13:07:29.592Z,476
2023-01-26T13:08:28.867Z,434
2023-01-26T13:09:28.981Z,561
2023-01-26T13:10:29.687Z,575
2023-01-26T13:11:29.575Z,579
2023-01-26T13:12:29.290Z,429
2023-01-26T13:13:29.083Z,500
2023-01-26T13:14:29.426Z,502
2023-01-26T13:15:29.652Z,497
2023-01-26T13:16:29.805Z,544
2023-01-26T13:17:29.963Z,630
2023-01-26T13:18:28.849Z,547
2023-01-26T13:19:29.736Z,630
2023-01-26T13:20:29.165Z,647
2023-01-26T13:21:28.932Z,477
2023-01-26T13:22:29.568Z,441
2023-01-26T13:23:28.947Z,592
2023-01-26T13:24:29.002Z,520
2023-01-26T13:25:29.086Z,559
2023-01-26T13:26:28.945Z,568
2023-01-26T13:27:28.854Z,781
2023-01-26T13:28:29.208Z,525
2023-01-26T13:29:29.340Z,584
2023-01-26T13:30:29.008Z,543
2023-01-26T13:31:28.959Z,515
2023-01-26T13:32:28.975Z,505
2023-01-26T13:33:28.855Z,527
2023-01-26T13:34:28.865Z,477
2023-01-26T13:35:28.982Z,478
2023-01-26T13:36:29.533Z,472
2023-01-26T13:37:28.955Z,390
2023-01-26T13:38:29.382Z,234
2023-01-26T13:39:29.060Z,198
2023-01-26T13:40:31.084Z,781
2023-01-26T13:41:29.265Z,616
2023-01-26T13:42:29.267Z,322
2023-01-26T13:43:28.879Z,457
2023-01-26T13:44:28.854Z,531
2023-01-26T13:45:29.632Z,409
2023-01-26T13:46:29.007Z,331
2023-01-26T13:47:28.929Z,433
2023-01-26T13:48:29.640Z,432
2023-01-26T13:49:28.910Z,439
2023-01-26T13:50:28.183Z,565
2023-01-26T13:51:29.423Z,580
2023-01-26T13:52:28.886Z,427
2023-01-26T13:53:29.473Z,492
2023-01-26T13:56:28.844Z,492